createdAt,value
2023-02-07T00:01:37.522Z,102862.33
2023-02-07T00:04:06.973Z,102864.92
2023-02-07T00:06:36.678Z,102865.62
2023-02-07T00:09:10.716Z,102860.59
2023-02-07T00:11:40.397Z,102858.17
2023-02-07T00:14:11.368Z,102857.98
2023-02-07T00:16:41.867Z,102857.30
2023-02-07T00:19:11.448Z,102850.89
2023-02-07T00:21:40.229Z,102844.65
2023-02-07T00:24:09.141Z,102841.36
2023-02-07T00:26:38.512Z,102837.02
2023-02-07T00:29:07.656Z,102833.73
2023-02-07T00:31:36.701Z,102837.55
2023-02-07T00:34:08.198Z,102839.11
2023-02-07T00:36:39.075Z,102838.95
2023-02-07T00:39:11.709Z,102837.36
2023-02-07T00:41:40.690Z,102841.89
2023-02-07T00:44:10.031Z,102849.17
2023-02-07T00:46:39.531Z,102848.64
2023-02-07T00:49:08.169Z,102852.12
2023-02-07T00:51:40.084Z,102850.55
2023-02-07T00:54:09.066Z,102846.56
2023-02-07T00:56:37.907Z,102843.61
2023-02-07T00:59:06.631Z,102845.17
2023-02-07T01:01:37.113Z,102837.71
2023-02-07T01:04:08.038Z,102829.92
2023-02-07T01:06:36.741Z,102828.55
2023-02-07T01:09:06.759Z,102825.94
2023-02-07T01:11:35.711Z,102823.34
2023-02-07T01:14:04.324Z,102819.86
2023-02-07T01:16:36.128Z,102826.60
2023-02-07T01:19:07.187Z,102832.66
2023-02-07T01:21:36.975Z,102833.02
2023-02-07T01:24:08.163Z,102844.27
2023-02-07T01:26:38.166Z,102839.94
2023-02-07T01:29:07.739Z,102834.91
2023-02-07T01:31:37.130Z,102829.02
2023-02-07T01:34:06.700Z,102833.87
2023-02-07T01:36:36.006Z,102838.73
2023-02-07T01:39:05.212Z,102842.89
2023-02-07T01:41:36.340Z,102841.17
2023-02-07T01:44:07.360Z,102836.84
2023-02-07T01:46:36.523Z,102831.30
2023-02-07T01:49:12.265Z,102837.88
2023-02-07T01:51:45.081Z,102840.47
2023-02-07T01:54:16.377Z,102837.00
2023-02-07T01:56:51.995Z,102828.85
2023-02-07T01:59:22.482Z,102827.95
2023-02-07T02:01:52.218Z,102833.15
2023-02-07T02:04:21.138Z,102838.01
2023-02-07T02:06:50.514Z,102836.77
2023-02-07T02:09:19.928Z,102833.13
2023-02-07T02:12:13.250Z,102839.37
2023-02-07T02:15:06.863Z,102837.27
2023-02-07T02:17:49.089Z,102837.27
2023-02-07T02:21:13.483Z,102840.40
2023-02-07T02:24:03.456Z,102843.00
2023-02-07T02:26:49.572Z,102837.95
2023-02-07T02:29:42.385Z,102836.39
2023-02-07T02:32:44.192Z,102832.20
2023-02-07T02:35:20.446Z,102833.92
2023-02-07T02:37:55.401Z,102838.92
2023-02-07T02:40:33.286Z,102837.88
2023-02-07T02:43:07.382Z,102836.84
2023-02-07T02:45:42.250Z,102835.78
2023-02-07T02:48:12.720Z,102835.94
2023-02-07T02:50:47.330Z,102832.08
2023-02-07T02:53:17.175Z,102833.48
2023-02-07T02:56:14.118Z,102836.77
2023-02-07T02:59:01.050Z,102840.58
2023-02-07T03:01:39.594Z,102835.20
2023-02-07T03:04:29.334Z,102837.47
2023-02-07T03:07:19.621Z,102830.19
2023-02-07T03:09:56.967Z,102826.52
2023-02-07T03:12:33.029Z,102821.48
2023-02-07T03:15:06.265Z,102821.30
2023-02-07T03:17:44.968Z,102825.81
2023-02-07T03:20:20.567Z,102823.55
2023-02-07T03:22:52.710Z,102819.88
2023-02-07T03:25:24.942Z,102819.70
2023-02-07T03:27:56.677Z,102815.35
2023-02-07T03:30:30.582Z,102810.13
2023-02-07T03:33:11.344Z,102799.89
2023-02-07T03:35:47.017Z,102802.84
2023-02-07T03:38:16.677Z,102807.36
2023-02-07T03:40:49.067Z,102806.67
2023-02-07T03:43:22.858Z,102806.86
2023-02-07T03:45:52.135Z,102813.44
2023-02-07T03:48:21.036Z,102812.75
2023-02-07T03:50:52.341Z,102806.64
2023-02-07T03:53:21.376Z,102805.73
2023-02-07T03:55:51.333Z,102800.34
2023-02-07T03:58:20.031Z,102795.63
2023-02-07T04:00:48.688Z,102797.84
2023-02-07T04:03:18.070Z,102794.85
2023-02-07T04:05:48.967Z,102798.99
2023-02-07T04:08:18.389Z,102805.95
2023-02-07T04:10:57.703Z,102802.14
2023-02-07T04:13:27.491Z,102803.70
2023-02-07T04:15:56.802Z,102801.30
2023-02-07T04:18:25.787Z,102806.51
2023-02-07T04:21:01.744Z,102811.89
2023-02-07T04:23:30.808Z,102817.61
2023-02-07T04:26:01.887Z,102817.40
2023-02-07T04:28:33.542Z,102812.15
2023-02-07T04:31:03.081Z,102808.32
2023-02-07T04:33:32.980Z,102804.48
2023-02-07T04:36:04.051Z,102806.19
2023-02-07T04:38:33.888Z,102797.11
2023-02-07T04:41:04.620Z,102791.55
2023-02-07T04:43:35.681Z,102785.29
2023-02-07T04:46:06.501Z,102785.39
2023-02-07T04:48:37.614Z,102789.02
2023-02-07T04:51:07.268Z,102789.54
2023-02-07T04:53:36.433Z,102786.41
2023-02-07T04:56:08.492Z,102783.63
2023-02-07T04:58:37.302Z,102781.00
2023-02-07T05:01:06.621Z,102781.33
2023-02-07T05:03:35.508Z,102780.24
2023-02-07T05:06:05.399Z,102783.88
2023-02-07T05:08:35.205Z,102792.37
2023-02-07T05:11:04.983Z,102787.30
2023-02-07T05:13:34.744Z,102795.05
2023-02-07T05:16:04.917Z,102794.33
2023-02-07T05:18:34.672Z,102807.31
2023-02-07T05:21:03.662Z,102800.38
2023-02-07T05:23:35.621Z,102796.36
2023-02-07T05:26:04.956Z,102797.23
2023-02-07T05:28:34.638Z,102798.30
2023-02-07T05:31:03.798Z,102801.27
2023-02-07T05:33:34.675Z,102799.73
2023-02-07T05:36:04.504Z,102792.25
2023-02-07T05:38:34.299Z,102794.35
2023-02-07T05:41:03.318Z,102793.63
2023-02-07T05:43:34.216Z,102793.59
2023-02-07T05:46:03.255Z,102792.16
2023-02-07T05:48:33.941Z,102801.67
2023-02-07T05:51:03.046Z,102798.83
2023-02-07T05:53:35.167Z,102795.95
2023-02-07T05:56:04.763Z,102793.48
2023-02-07T05:58:33.883Z,102788.59
2023-02-07T06:01:02.512Z,102792.41
2023-02-07T06:03:32.087Z,102797.97
2023-02-07T06:06:00.707Z,102797.80
2023-02-07T06:08:29.424Z,102794.16
2023-02-07T06:10:58.571Z,102794.86
2023-02-07T06:13:27.179Z,102791.19
2023-02-07T06:15:56.028Z,102796.75
2023-02-07T06:18:24.806Z,102800.23
2023-02-07T06:20:53.773Z,102799.66
2023-02-07T06:23:22.496Z,102797.02
2023-02-07T06:25:51.135Z,102795.05
2023-02-07T06:28:21.076Z,102793.23
2023-02-07T06:30:51.206Z,102790.23
2023-02-07T06:33:20.496Z,102787.81
2023-02-07T06:35:49.233Z,102786.05
2023-02-07T06:38:18.844Z,102795.75
2023-02-07T06:40:48.134Z,102795.23
2023-02-07T06:43:17.462Z,102797.31
2023-02-07T06:45:46.188Z,102795.21
2023-02-07T06:48:15.123Z,102797.08
2023-02-07T06:50:44.111Z,102802.94
2023-02-07T06:53:12.816Z,102802.36
2023-02-07T06:55:41.466Z,102808.75
2023-02-07T06:58:10.646Z,102813.61
2023-02-07T07:00:39.540Z,102815.19
2023-02-07T07:03:11.266Z,102812.77
2023-02-07T07:05:40.043Z,102809.81
2023-02-07T07:08:10.096Z,102813.68
2023-02-07T07:10:38.886Z,102813.86
2023-02-07T07:13:07.526Z,102810.35
2023-02-07T07:15:37.317Z,102816.56
2023-02-07T07:18:06.637Z,102814.10
2023-02-07T07:20:35.316Z,102816.95
2023-02-07T07:23:03.953Z,102819.30
2023-02-07T07:25:35.009Z,102822.55
2023-02-07T07:28:03.951Z,102815.47
2023-02-07T07:30:33.604Z,102810.89
2023-02-07T07:33:02.355Z,102811.23
2023-02-07T07:35:32.011Z,102821.84
2023-02-07T07:38:00.490Z,102826.34
2023-02-07T07:40:29.255Z,102827.35
2023-02-07T07:42:58.016Z,102825.04
2023-02-07T07:45:34.796Z,102823.91
2023-02-07T07:48:03.728Z,102831.48
2023-02-07T07:50:33.788Z,102834.02
2023-02-07T07:53:02.394Z,102840.73
2023-02-07T07:55:31.944Z,102841.25
2023-02-07T07:58:00.894Z,102843.69
2023-02-07T08:00:29.618Z,102844.39
2023-02-07T08:02:58.780Z,102849.13
2023-02-07T08:05:27.754Z,102853.31
2023-02-07T08:07:56.357Z,102856.09
2023-02-07T08:10:25.147Z,102857.63
2023-02-07T08:12:53.959Z,102858.67
2023-02-07T08:15:22.547Z,102864.40
2023-02-07T08:17:51.155Z,102865.23
2023-02-07T08:20:20.014Z,102865.69
2023-02-07T08:22:48.621Z,102867.48
2023-02-07T08:25:17.491Z,102872.31
2023-02-07T08:27:46.288Z,102877.52
2023-02-07T08:30:18.239Z,102878.77
2023-02-07T08:32:46.999Z,102876.77
2023-02-07T08:35:15.809Z,102876.42
2023-02-07T08:37:44.589Z,102875.72
2023-02-07T08:40:14.001Z,102876.73
2023-02-07T08:42:42.789Z,102875.67
2023-02-07T08:45:12.009Z,102874.59
2023-02-07T08:47:40.637Z,102872.98
2023-02-07T08:50:13.054Z,102874.70
2023-02-07T08:52:42.413Z,102877.24
2023-02-07T08:55:11.743Z,102883.48
2023-02-07T08:57:40.949Z,102883.64
2023-02-07T09:00:12.431Z,102887.09
2023-02-07T09:02:42.876Z,102891.74
2023-02-07T09:05:12.154Z,102893.42
2023-02-07T09:07:40.787Z,102895.63
2023-02-07T09:10:10.962Z,102894.15
2023-02-07T09:12:39.591Z,102896.36
2023-02-07T09:15:10.226Z,102895.08
2023-02-07T09:17:38.823Z,102889.63
2023-02-07T09:20:08.893Z,102892.02
2023-02-07T09:22:52.397Z,102894.98
2023-02-07T09:25:21.758Z,102896.92
2023-02-07T09:27:51.661Z,102895.48
2023-02-07T09:30:21.416Z,102892.83
2023-02-07T09:32:50.125Z,102893.08
2023-02-07T09:35:19.178Z,102887.24
2023-02-07T09:37:49.929Z,102888.73
2023-02-07T09:40:20.471Z,102882.94
2023-02-07T09:42:57.004Z,102880.91
2023-02-07T09:45:30.626Z,102876.80
2023-02-07T09:48:06.303Z,102876.13
2023-02-07T09:50:41.678Z,102873.52
2023-02-07T09:53:17.150Z,102872.48
2023-02-07T09:55:50.584Z,102873.86
2023-02-07T09:58:26.541Z,102868.36
2023-02-07T10:01:03.948Z,102872.88
2023-02-07T10:03:36.670Z,102870.17
2023-02-07T10:06:18.939Z,102874.98
2023-02-07T10:08:53.930Z,102872.59
2023-02-07T10:11:34.130Z,102870.10
2023-02-07T10:14:25.146Z,102873.68
2023-02-07T10:17:25.766Z,102871.20
2023-02-07T10:20:26.362Z,102868.61
2023-02-07T10:23:09.893Z,102862.98
2023-02-07T10:25:49.215Z,102862.70
2023-02-07T10:28:56.035Z,102863.03
2023-02-07T10:31:26.404Z,102862.21
2023-02-07T10:33:59.519Z,102861.98
2023-02-07T10:36:34.614Z,102861.64
2023-02-07T10:39:12.453Z,102857.34
2023-02-07T10:41:44.129Z,102853.85
2023-02-07T10:44:17.845Z,102846.81
2023-02-07T10:46:50.928Z,102843.63
2023-02-07T10:49:25.336Z,102838.98
2023-02-07T10:51:57.409Z,102830.48
2023-02-07T10:54:26.883Z,102826.85
2023-02-07T10:57:02.177Z,102828.54
2023-02-07T10:59:37.207Z,102827.50
2023-02-07T11:02:38.960Z,102828.92
2023-02-07T11:05:53.894Z,102827.02
2023-02-07T11:08:25.753Z,102816.96
2023-02-07T11:10:56.302Z,102816.77
2023-02-07T11:13:28.171Z,102821.02
2023-02-07T11:16:03.578Z,102820.23
2023-02-07T11:18:55.863Z,102822.68
2023-02-07T11:21:28.534Z,102823.86
2023-02-07T11:24:01.119Z,102826.81
2023-02-07T11:26:40.515Z,102826.41
2023-02-07T11:29:15.656Z,102826.82
2023-02-07T11:31:46.563Z,102829.55
2023-02-07T11:34:45.444Z,102825.91
2023-02-07T11:37:32.273Z,102822.46
2023-02-07T11:40:22.125Z,102818.09
2023-02-07T11:42:58.198Z,102814.89
2023-02-07T11:45:28.229Z,102810.27
2023-02-07T11:47:58.677Z,102810.54
2023-02-07T11:50:32.728Z,102813.23
2023-02-07T11:53:02.754Z,102814.45
2023-02-07T11:55:36.701Z,102812.77
2023-02-07T11:58:11.362Z,102813.90
2023-02-07T12:00:41.109Z,102816.55
2023-02-07T12:03:22.182Z,102817.70
2023-02-07T12:05:54.321Z,102814.78
2023-02-07T12:08:24.963Z,102814.73
2023-02-07T12:10:58.472Z,102812.65
2023-02-07T12:13:34.605Z,102807.60
2023-02-07T12:16:07.050Z,102809.11
2023-02-07T12:18:40.021Z,102805.36
2023-02-07T12:21:23.524Z,102803.27
2023-02-07T12:23:57.335Z,102799.90
2023-02-07T12:26:29.937Z,102801.98
2023-02-07T12:29:15.340Z,102801.83
2023-02-07T12:31:54.526Z,102804.38
2023-02-07T12:34:31.177Z,102809.98
2023-02-07T12:37:10.212Z,102808.80
2023-02-07T12:39:46.000Z,102806.86
2023-02-07T12:42:30.541Z,102811.44
2023-02-07T12:45:02.298Z,102817.93
2023-02-07T12:47:43.988Z,102818.20
2023-02-07T12:50:29.596Z,102817.30
2023-02-07T12:53:12.569Z,102820.45
2023-02-07T12:55:49.990Z,102822.92
2023-02-07T12:58:30.783Z,102819.83
2023-02-07T13:01:05.996Z,102821.76
2023-02-07T13:04:11.270Z,102820.05
2023-02-07T13:06:48.498Z,102824.58
2023-02-07T13:09:24.726Z,102824.38
2023-02-07T13:12:03.895Z,102829.45
2023-02-07T13:14:51.886Z,102827.11
2023-02-07T13:17:35.162Z,102836.11
2023-02-07T13:20:15.846Z,102837.42
2023-02-07T13:22:48.660Z,102837.19
2023-02-07T13:25:23.124Z,102833.87
2023-02-07T13:27:55.524Z,102834.55
2023-02-07T13:30:26.032Z,102835.09
2023-02-07T13:32:59.161Z,102836.42
2023-02-07T13:35:37.575Z,102839.82
2023-02-07T13:38:17.400Z,102833.44
2023-02-07T13:40:57.242Z,102829.65
2023-02-07T13:43:39.689Z,102826.30
2023-02-07T13:46:20.357Z,102835.04
2023-02-07T13:48:55.044Z,102838.50
2023-02-07T13:51:29.982Z,102837.72
2023-02-07T13:54:08.680Z,102837.42
2023-02-07T13:56:56.197Z,102837.16
2023-02-07T13:59:39.495Z,102837.88
2023-02-07T14:02:17.436Z,102836.72
2023-02-07T14:04:52.831Z,102836.50
2023-02-07T14:07:28.370Z,102838.38
2023-02-07T14:09:58.450Z,102840.64
2023-02-07T14:12:32.811Z,102843.67
2023-02-07T14:15:48.771Z,102843.70
2023-02-07T14:18:48.785Z,102841.28
2023-02-07T14:21:32.166Z,102843.72
2023-02-07T14:24:29.827Z,102843.69
2023-02-07T14:27:04.032Z,102848.25
2023-02-07T14:29:55.037Z,102852.38
2023-02-07T14:32:44.095Z,102850.65
2023-02-07T14:35:34.525Z,102851.27
2023-02-07T14:38:20.741Z,102857.28
2023-02-07T14:41:09.669Z,102859.11
2023-02-07T14:44:07.663Z,102861.39
2023-02-07T14:46:42.787Z,102863.48
2023-02-07T14:49:18.783Z,102862.55
2023-02-07T14:51:49.697Z,102869.41
2023-02-07T14:54:26.414Z,102872.02
2023-02-07T14:57:04.746Z,102867.88
2023-02-07T14:59:40.442Z,102871.92
2023-02-07T15:02:29.905Z,102873.36
2023-02-07T15:05:16.743Z,102875.78
2023-02-07T15:07:47.139Z,102875.23
2023-02-07T15:10:21.757Z,102877.31
2023-02-07T15:12:52.702Z,102875.34
2023-02-07T15:15:24.677Z,102877.89
2023-02-07T15:17:56.306Z,102877.14
2023-02-07T15:20:28.764Z,102874.06
2023-02-07T15:23:00.150Z,102878.98
2023-02-07T15:25:30.873Z,102881.46
2023-02-07T15:28:02.599Z,102877.38
2023-02-07T15:30:33.290Z,102879.55
2023-02-07T15:33:10.321Z,102883.46
2023-02-07T15:35:39.491Z,102885.42
2023-02-07T15:38:17.567Z,102887.91
2023-02-07T15:40:48.985Z,102890.23
2023-02-07T15:43:32.999Z,102895.16
2023-02-07T15:46:08.901Z,102898.52
2023-02-07T15:48:50.266Z,102900.15
2023-02-07T15:51:24.702Z,102906.83
2023-02-07T15:53:57.627Z,102908.98
2023-02-07T15:56:29.368Z,102910.95
2023-02-07T15:59:04.061Z,102912.06
2023-02-07T16:01:51.206Z,102908.43
2023-02-07T16:04:23.661Z,102908.61
2023-02-07T16:06:58.436Z,102907.71
2023-02-07T16:09:47.247Z,102914.98
2023-02-07T16:12:44.239Z,102917.35
2023-02-07T16:15:26.336Z,102923.62
2023-02-07T16:17:55.388Z,102927.48
2023-02-07T16:20:25.292Z,102926.31
2023-02-07T16:23:00.017Z,102929.48
2023-02-07T16:25:33.456Z,102934.73
2023-02-07T16:28:08.632Z,102939.84
2023-02-07T16:30:40.981Z,102938.50
2023-02-07T16:33:13.106Z,102938.36
2023-02-07T16:35:42.453Z,102940.80
2023-02-07T16:38:14.892Z,102944.98
2023-02-07T16:53:06.831Z,102939.80
2023-02-07T17:39:58.656Z,102985.58
2023-02-07T17:42:28.618Z,102990.84
2023-02-07T17:44:57.953Z,102996.11
2023-02-07T18:01:18.535Z,103000.51
2023-02-07T18:03:48.305Z,103003.64
2023-02-07T18:06:18.757Z,103004.35
2023-02-07T18:08:47.795Z,102999.86
2023-02-07T18:11:17.060Z,103006.73
2023-02-07T18:13:47.491Z,103010.25
2023-02-07T18:16:18.631Z,103012.17
2023-02-07T18:18:47.379Z,103016.17
2023-02-07T18:21:16.444Z,103013.88
2023-02-07T18:23:45.351Z,103019.58
2023-02-07T18:26:15.945Z,103023.29
2023-02-07T18:28:45.140Z,103023.16
2023-02-07T18:31:16.393Z,103024.05
2023-02-07T18:33:45.696Z,103028.46
2023-02-07T18:36:14.983Z,103025.14
2023-02-07T18:38:44.395Z,103025.65
2023-02-07T18:41:15.324Z,103030.52
2023-02-07T18:43:44.908Z,103029.40
2023-02-07T18:46:16.643Z,103031.23
2023-02-07T18:48:49.170Z,103030.36
2023-02-07T18:51:18.981Z,103029.88
2023-02-07T18:53:50.148Z,103024.67
2023-02-07T18:56:21.893Z,103024.02
2023-02-07T18:58:52.531Z,103024.05
2023-02-07T19:01:24.702Z,103025.84
2023-02-07T19:03:55.932Z,103022.73
2023-02-07T19:06:27.792Z,103024.14
2023-02-07T19:08:56.940Z,103027.84
2023-02-07T19:11:26.238Z,103028.73
2023-02-07T19:13:55.375Z,103029.02
2023-02-07T19:16:24.910Z,103026.93
2023-02-07T19:18:56.457Z,103021.88
2023-02-07T19:21:26.661Z,103019.10
2023-02-07T19:23:57.122Z,103020.13
2023-02-07T19:26:39.097Z,103027.28
2023-02-07T19:29:11.368Z,103026.98
2023-02-07T19:31:42.876Z,103032.58
2023-02-07T19:34:13.295Z,103033.61
2023-02-07T19:36:43.545Z,103037.16
2023-02-07T19:39:14.832Z,103040.64
2023-02-07T19:41:43.809Z,103043.06
2023-02-07T19:44:12.833Z,103041.30
2023-02-07T19:46:43.853Z,103041.99
2023-02-07T19:49:15.268Z,103040.86
2023-02-07T19:51:44.965Z,103043.23
2023-02-07T19:54:13.709Z,103046.20
2023-02-07T19:56:42.695Z,103048.13
2023-02-07T19:59:11.459Z,103046.55
2023-02-07T20:01:40.317Z,103051.44
2023-02-07T20:04:11.865Z,103055.45
2023-02-07T20:06:40.736Z,103056.16
2023-02-07T20:09:09.569Z,103057.26
2023-02-07T20:11:38.542Z,103057.64
2023-02-07T20:14:07.687Z,103059.40
2023-02-07T20:16:40.669Z,103060.08
2023-02-07T20:19:09.714Z,103063.38
2023-02-07T20:21:39.297Z,103057.23
2023-02-07T20:24:10.851Z,103062.61
2023-02-07T20:26:41.970Z,103065.32
2023-02-07T20:29:13.840Z,103067.48
2023-02-07T20:31:43.640Z,103064.09
2023-02-07T20:34:13.506Z,103068.48
2023-02-07T20:36:43.167Z,103065.77
2023-02-07T20:39:14.157Z,103062.44
2023-02-07T20:41:46.700Z,103068.71
2023-02-07T20:44:18.300Z,103068.95
2023-02-07T20:46:48.840Z,103065.35
2023-02-07T20:49:20.104Z,103064.88
2023-02-07T20:51:51.155Z,103076.09
2023-02-07T20:54:26.365Z,103078.24
2023-02-07T20:56:57.596Z,103079.52
2023-02-07T20:59:29.522Z,103075.70
2023-02-07T21:01:58.709Z,103078.00
2023-02-07T21:04:29.420Z,103075.77
2023-02-07T21:07:01.270Z,103077.86
2023-02-07T21:09:31.129Z,103081.02
2023-02-07T21:12:00.739Z,103081.21
2023-02-07T21:14:31.275Z,103077.89
2023-02-07T21:17:03.524Z,103082.27
2023-02-07T21:19:33.792Z,103089.98
2023-02-07T21:22:02.790Z,103092.30
2023-02-07T21:24:34.080Z,103097.73
2023-02-07T21:27:04.530Z,103098.96
2023-02-07T21:29:35.921Z,103101.92
2023-02-07T21:32:04.626Z,103104.88
2023-02-07T21:34:34.681Z,103105.70
2023-02-07T21:37:03.362Z,103116.46
2023-02-07T21:39:34.697Z,103116.80
2023-02-07T21:42:03.749Z,103113.31
2023-02-07T21:44:35.521Z,103116.66
2023-02-07T21:47:04.660Z,103114.58
2023-02-07T21:49:34.245Z,103111.60
2023-02-07T21:52:02.973Z,103111.96
2023-02-07T21:54:33.098Z,103111.45
2023-02-07T21:57:02.739Z,103115.23
2023-02-07T21:59:34.204Z,103118.33
2023-02-07T22:02:03.243Z,103116.14
2023-02-07T22:04:34.168Z,103126.17
2023-02-07T22:07:03.174Z,103122.92
2023-02-07T22:09:32.473Z,103122.36
2023-02-07T22:12:01.388Z,103120.55
2023-02-07T22:14:32.806Z,103117.14
2023-02-07T22:17:02.949Z,103123.98
2023-02-07T22:19:33.071Z,103127.70
2023-02-07T22:22:02.480Z,103128.80
2023-02-07T22:24:35.130Z,103130.70
2023-02-07T22:27:04.074Z,103131.41
2023-02-07T22:29:34.809Z,103132.54
2023-02-07T22:32:04.408Z,103138.71
2023-02-07T22:34:37.345Z,103141.88
2023-02-07T22:37:07.979Z,103146.26
2023-02-07T22:39:41.699Z,103149.31
2023-02-07T22:42:11.088Z,103152.92
2023-02-07T22:44:44.227Z,103153.63
2023-02-07T22:47:13.399Z,103154.58
2023-02-07T22:49:46.473Z,103157.21
2023-02-07T22:52:15.409Z,103161.58
2023-02-07T22:54:45.576Z,103165.23
2023-02-07T22:57:15.951Z,103165.52
2023-02-07T22:59:46.560Z,103163.05
2023-02-07T23:02:15.291Z,103165.30
2023-02-07T23:04:44.230Z,103165.82
2023-02-07T23:07:16.288Z,103170.33
2023-02-07T23:09:46.154Z,103168.20
2023-02-07T23:12:15.318Z,103169.34
2023-02-07T23:14:44.230Z,103170.15
2023-02-07T23:17:15.524Z,103170.31
2023-02-07T23:19:44.527Z,103170.39
2023-02-07T23:22:14.172Z,103164.25
2023-02-07T23:24:45.075Z,103166.15
2023-02-07T23:27:14.736Z,103168.64
2023-02-07T23:29:44.223Z,103169.35
2023-02-07T23:32:13.762Z,103168.70
2023-02-07T23:34:43.403Z,103166.70
2023-02-07T23:37:12.406Z,103164.72
2023-02-07T23:39:42.554Z,103164.95
2023-02-07T23:42:13.500Z,103168.97
2023-02-07T23:44:43.492Z,103170.70
2023-02-07T23:47:13.016Z,103170.84
2023-02-07T23:49:42.170Z,103172.22
2023-02-07T23:52:11.579Z,103171.80
2023-02-07T23:54:42.934Z,103173.46
2023-02-07T23:57:11.960Z,103173.73
2023-02-07T23:59:42.340Z,103174.59
